Time;durP1;ratioP1;P1;durP2;ratioP2;P2;SDS_P1;SDS_P2;PMS_P1;PMS_P2;Temp;Humidity;BMP_temperature;BMP_pressure;BME280_temperature;BME280_humidity;BME280_pressure;Samples;Min_cycle;Max_cycle;Signal;HPM_P1;HPM_P2
2022/12/24 00:01:18;;;;;;;1.88;1.00;;;11.50;99.90;;;11.68;100.00;99529.34;4951541;28;20300;-76
2022/12/24 00:03:45;;;;;;;1.73;1.30;;;11.60;99.90;;;11.62;100.00;99526.75;4959459;28;20263;-77
2022/12/24 00:06:18;;;;;;;0.60;0.50;;;11.60;99.90;;;11.72;99.67;99529.34;4951076;28;20301;-78
2022/12/24 00:08:45;;;;;;;0.98;0.73;;;11.60;99.90;;;11.68;98.82;99486.97;4951414;29;20233;-78
2022/12/24 00:11:12;;;;;;;0.22;0.22;;;11.70;99.90;;;11.52;98.98;99489.78;4951451;29;20253;-77
2022/12/24 00:13:39;;;;;;;0.30;0.30;;;11.60;99.90;;;11.51;99.01;99489.81;4951639;28;20230;-79
2022/12/24 00:16:06;;;;;;;0.20;0.20;;;11.50;99.90;;;11.44;99.17;99493.41;4951251;28;20229;-77
2022/12/24 00:18:33;;;;;;;0.20;0.20;;;11.50;99.90;;;11.30;99.82;99495.28;4966224;28;20287;-78
2022/12/24 00:21:09;;;;;;;0.20;0.20;;;11.30;99.90;;;11.24;100.00;99498.88;4932997;29;20238;-78
2022/12/24 00:23:36;;;;;;;0.20;0.20;;;11.20;99.90;;;11.25;100.00;99518.28;4932505;29;20246;-77
2022/12/24 00:26:03;;;;;;;0.82;0.82;;;11.20;99.90;;;11.20;100.00;99500.66;4918582;29;20244;-78
2022/12/24 00:28:30;;;;;;;0.40;0.40;;;11.20;99.90;;;11.16;100.00;99513.94;4929965;29;20341;-79
2022/12/24 00:30:57;;;;;;;0.45;0.45;;;11.10;99.90;;;10.95;100.00;99511.47;4951412;29;20222;-77
2022/12/24 00:33:24;;;;;;;0.43;0.40;;;11.00;99.90;;;11.02;100.00;99534.34;4963698;28;20240;-78
2022/12/24 00:35:52;;;;;;;0.47;0.47;;;11.00;99.90;;;10.99;100.00;99524.66;4969895;28;20233;-77
2022/12/24 00:38:19;;;;;;;0.40;0.40;;;11.00;99.90;;;11.10;100.00;99528.09;4970510;28;20661;-76
2022/12/24 00:40:46;;;;;;;0.40;0.40;;;11.10;99.90;;;11.07;99.89;99530.75;4953408;28;20287;-79
2022/12/24 00:43:13;;;;;;;0.32;0.30;;;11.10;99.90;;;10.94;100.00;99520.28;4970511;28;20265;-77
2022/12/24 00:45:40;;;;;;;0.10;0.10;;;11.00;99.90;;;11.00;100.00;99531.69;4970141;28;20297;-78
2022/12/24 00:48:07;;;;;;;0.20;0.20;;;11.00;99.90;;;11.06;99.93;99533.41;4971155;28;20249;-77
2022/12/24 00:50:34;;;;;;;0.10;0.10;;;11.10;99.90;;;10.98;100.00;99543.19;4953641;28;20283;-78
2022/12/24 00:53:01;;;;;;;0.05;0.05;;;11.00;99.90;;;11.16;99.97;99559.81;4970817;28;20695;-78
2022/12/24 00:55:28;;;;;;;0.20;0.20;;;11.10;99.90;;;11.13;99.69;99538.66;4973774;28;20296;-78
2022/12/24 00:57:55;;;;;;;0.20;0.20;;;11.10;99.90;;;10.99;100.00;99534.34;4974009;28;20253;-78
2022/12/24 01:00:22;;;;;;;0.30;0.30;;;11.00;99.90;;;11.13;100.00;99556.31;4974354;28;20228;-78
2022/12/24 01:02:49;;;;;;;0.20;0.20;;;11.00;99.90;;;11.19;98.81;99537.72;4969908;28;20271;-78
2022/12/24 01:05:19;;;;;;;0.30;0.28;;;11.10;99.90;;;11.14;98.60;99543.06;4968243;28;20248;-78
2022/12/24 01:07:46;;;;;;;0.47;0.47;;;11.10;99.90;;;10.82;99.53;99522.13;4973670;28;20315;-78
2022/12/24 01:10:18;;;;;;;0.30;0.30;;;10.90;99.90;;;10.77;100.00;99553.00;4974033;28;20261;-78
2022/12/24 01:12:45;;;;;;;0.38;0.38;;;10.80;99.90;;;10.66;100.00;99538.09;4973772;28;20233;-78
2022/12/24 01:15:14;;;;;;;0.10;0.10;;;10.70;99.90;;;10.89;99.48;99552.06;4973379;28;20269;-78
2022/12/24 01:17:41;;;;;;;0.30;0.30;;;10.80;99.90;;;11.00;97.75;99542.28;4973759;28;20324;-78
2022/12/24 01:20:14;;;;;;;0.28;0.28;;;10.90;99.90;;;10.95;96.72;99519.41;4974161;28;20295;-78
2022/12/24 01:22:42;;;;;;;0.10;0.10;;;11.00;99.90;;;10.78;97.16;99525.69;4954255;29;20237;-78
2022/12/24 01:25:11;;;;;;;0.10;0.10;;;10.80;99.90;;;10.80;96.75;99529.19;4953847;29;20242;-78
2022/12/24 01:27:38;;;;;;;0.05;0.05;;;10.80;99.90;;;10.53;98.25;99526.72;4954990;29;20225;-77
2022/12/24 01:30:08;;;;;;;0.05;0.05;;;10.60;99.90;;;10.40;98.79;99528.53;4954603;29;20233;-77
2022/12/24 01:32:35;;;;;;;0.10;0.10;;;10.50;99.90;;;10.36;99.57;99537.34;4947834;28;20309;-78
2022/12/24 01:35:02;;;;;;;0.05;0.05;;;10.40;99.90;;;10.39;99.36;99553.19;4961420;28;20238;-79
2022/12/24 01:37:29;;;;;;;0.20;0.20;;;10.40;99.90;;;10.17;100.00;99557.63;4954298;29;20263;-78
2022/12/24 01:43:22;;;;;;;0.20;0.20;;;10.20;99.90;;;9.97;100.00;99542.72;4953993;29;20230;-78
2022/12/24 01:45:36;;;;;;;0.10;0.10;;;10.10;99.90;;;10.33;100.00;99616.63;4953708;29;20690;-78
2022/12/24 01:48:04;;;;;;;0.20;0.20;;;10.20;99.90;;;10.34;100.00;99591.06;4936746;29;20769;-78
2022/12/24 01:50:31;;;;;;;0.10;0.10;;;10.40;99.90;;;10.06;100.00;99582.31;4954179;29;20230;-78
2022/12/24 01:52:58;;;;;;;0.20;0.20;;;10.10;99.90;;;10.19;100.00;99600.78;4954088;29;20246;-78
2022/12/24 01:55:25;;;;;;;0.17;0.17;;;10.10;99.90;;;10.11;100.00;99581.44;4936305;29;20262;-78
2022/12/24 01:57:57;;;;;;;0.10;0.10;;;10.20;99.90;;;10.10;100.00;99582.31;4937309;29;20234;-79
2022/12/24 02:00:24;;;;;;;0.20;0.20;;;10.10;99.90;;;10.02;100.00;99593.78;4937028;28;20261;-78
2022/12/24 02:02:53;;;;;;;0.10;0.10;;;10.10;99.90;;;10.04;100.00;99623.72;4948455;28;20254;-78
2022/12/24 02:05:46;;;;;;;0.10;0.10;;;10.00;99.90;;;10.01;100.00;99631.63;4929964;29;20237;-78
2022/12/24 02:08:23;;;;;;;0.20;0.20;;;9.80;99.90;;;10.01;100.00;99627.25;4953934;29;20246;-78
2022/12/24 02:11:02;;;;;;;0.10;0.10;;;10.00;99.90;;;10.12;100.00;99629.84;4929942;29;20234;-78
2022/12/24 02:13:29;;;;;;;0.55;0.55;;;10.00;99.90;;;10.05;100.00;99609.63;4934602;29;20290;-78
2022/12/24 02:16:21;;;;;;;0.10;0.10;;;10.10;99.90;;;10.46;100.00;99607.81;4917127;29;20235;-77
2022/12/24 02:19:17;;;;;;;0.10;0.10;;;10.40;99.90;;;10.48;100.00;99606.03;4972629;28;20704;-78
2022/12/24 02:22:01;;;;;;;0.10;0.10;;;10.40;99.90;;;10.47;100.00;99603.41;4972774;28;20253;-78
2022/12/24 02:24:56;;;;;;;0.10;0.10;;;10.40;99.90;;;10.13;100.00;99600.78;4954770;28;20300;-77
2022/12/24 02:27:38;;;;;;;0.10;0.10;;;10.20;99.90;;;10.07;100.00;99605.22;4972174;28;20287;-78
2022/12/24 02:30:19;;;;;;;0.10;0.10;;;10.10;99.90;;;10.14;100.00;99621.03;4964104;28;20229;-78
2022/12/24 02:33:17;;;;;;;0.10;0.10;;;10.10;99.90;;;10.32;100.00;99640.41;4942533;28;20221;-78
2022/12/24 02:35:58;;;;;;;0.10;0.10;;;10.30;99.90;;;10.12;100.00;99621.94;4935330;29;20308;-78
2022/12/24 02:38:32;;;;;;;0.10;0.10;;;10.20;99.90;;;10.29;100.00;99641.31;4953045;29;20257;-78
2022/12/24 02:41:16;;;;;;;0.25;0.20;;;10.30;99.90;;;10.29;100.00;99651.00;4935914;29;20301;-78
2022/12/24 02:43:47;;;;;;;0.10;0.10;;;10.30;99.90;;;10.35;100.00;99658.91;4935746;29;20237;-77
2022/12/24 02:46:25;;;;;;;0.00;0.00;;;10.30;99.90;;;10.40;100.00;99660.69;4935696;29;20242;-78
2022/12/24 02:48:54;;;;;;;0.20;0.20;;;10.40;99.90;;;10.31;100.00;99665.09;4935823;29;20237;-78
2022/12/24 02:51:23;;;;;;;0.10;0.10;;;10.30;99.90;;;10.19;100.00;99660.66;4935859;29;20304;-78
2022/12/24 02:53:50;;;;;;;0.22;0.22;;;10.30;99.90;;;10.19;100.00;99680.03;4953258;29;20261;-78
2022/12/24 02:57:05;;;;;;;0.10;0.10;;;10.20;99.90;;;10.05;100.00;99665.97;4951923;29;20325;-80
2022/12/24 03:00:03;;;;;;;0.10;0.10;;;10.10;99.90;;;9.89;100.00;99669.50;4935295;29;20610;-78
2022/12/24 03:03:11;;;;;;;0.10;0.10;;;10.00;99.90;;;9.79;100.00;99676.56;4933528;28;20262;-78
2022/12/24 03:05:56;;;;;;;0.00;0.00;;;9.90;99.90;;;9.75;100.00;99673.91;4924991;29;20242;-78
2022/12/24 03:08:41;;;;;;;0.10;0.10;;;9.70;99.90;;;9.73;100.00;99671.28;4918133;29;20257;-78
2022/12/24 03:11:12;;;;;;;0.00;0.00;;;9.80;99.90;;;9.78;100.00;99673.91;4917536;29;20238;-79
2022/12/24 03:13:41;;;;;;;0.30;0.30;;;9.80;99.90;;;9.74;100.00;99685.34;4968214;28;20311;-78
2022/12/24 03:16:14;;;;;;;0.00;0.00;;;9.70;99.90;;;9.71;100.00;99665.13;4953931;28;20248;-78
2022/12/24 03:18:46;;;;;;;0.10;0.10;;;9.70;99.90;;;9.70;100.00;99663.34;4954459;28;20355;-79
2022/12/24 03:21:21;;;;;;;0.08;0.08;;;9.70;99.90;;;9.75;100.00;99671.28;4954563;28;20320;-78
2022/12/24 03:23:48;;;;;;;0.00;0.00;;;9.70;99.90;;;9.83;100.00;99688.88;4938691;28;20236;-78
2022/12/24 03:26:17;;;;;;;0.10;0.10;;;9.80;99.90;;;9.88;100.00;99702.97;4954454;28;20244;-78
2022/12/24 03:28:46;;;;;;;0.10;0.10;;;9.80;99.90;;;9.91;100.00;99720.56;4938389;28;20260;-78
2022/12/24 03:31:14;;;;;;;0.15;0.15;;;9.90;99.90;;;9.86;100.00;99717.03;4943198;29;20309;-79
2022/12/24 03:33:41;;;;;;;0.10;0.10;;;9.90;99.90;;;9.84;100.00;99705.59;4932449;29;20305;-79
2022/12/24 03:36:09;;;;;;;0.00;0.00;;;9.80;99.90;;;9.80;100.00;99702.06;4932707;29;20254;-78
2022/12/24 03:38:37;;;;;;;0.10;0.10;;;9.80;99.90;;;9.77;100.00;99701.19;4932705;29;20234;-78
2022/12/24 03:41:04;;;;;;;0.00;0.00;;;9.70;99.90;;;9.71;100.00;99704.72;4916040;29;20729;-78
2022/12/24 03:43:31;;;;;;;0.10;0.10;;;9.70;99.90;;;9.78;100.00;99716.16;4932885;29;20322;-79
2022/12/24 03:46:05;;;;;;;0.10;0.10;;;9.80;99.90;;;9.86;100.00;99711.75;4932498;29;20226;-78
2022/12/24 03:48:34;;;;;;;0.10;0.10;;;9.90;99.90;;;9.92;100.00;99717.94;4932730;29;20285;-79
2022/12/24 03:51:03;;;;;;;0.00;0.00;;;9.90;99.90;;;9.90;100.00;99716.16;4932637;29;20653;-77
2022/12/24 03:53:30;;;;;;;0.20;0.20;;;9.90;99.90;;;9.99;100.00;99736.41;4932484;29;20268;-78
2022/12/24 03:55:57;;;;;;;0.08;0.08;;;10.00;99.90;;;9.97;100.00;99732.91;4931762;29;20238;-78
2022/12/24 03:58:25;;;;;;;0.00;0.00;;;10.00;99.90;;;9.94;100.00;99739.94;4932700;29;20596;-79
2022/12/24 04:00:53;;;;;;;0.00;0.00;;;9.90;99.90;;;9.88;100.00;99723.22;4932243;29;20266;-78
2022/12/24 04:03:20;;;;;;;0.10;0.10;;;9.90;99.90;;;9.83;100.00;99722.31;4932492;29;20242;-78
2022/12/24 04:05:47;;;;;;;0.10;0.10;;;9.80;99.90;;;9.77;100.00;99728.47;4932297;29;20256;-78
2022/12/24 04:08:14;;;;;;;0.00;0.00;;;9.80;99.90;;;9.78;100.00;99743.44;4932822;29;20298;-78
2022/12/24 04:10:41;;;;;;;0.10;0.10;;;9.80;99.90;;;9.77;100.00;99743.44;4915759;29;20293;-78
2022/12/24 04:13:08;;;;;;;0.10;0.10;;;9.80;99.90;;;9.86;100.00;99743.44;4913925;29;20235;-79
2022/12/24 04:15:35;;;;;;;0.00;0.00;;;9.80;99.90;;;9.88;100.00;99750.50;4913463;29;20258;-78
2022/12/24 04:18:02;;;;;;;0.00;0.00;;;9.90;99.90;;;9.90;100.00;99743.47;4913014;29;20255;-78
2022/12/24 04:20:29;;;;;;;0.00;0.00;;;9.90;99.90;;;9.90;100.00;99747.84;4913380;29;20325;-79
2022/12/24 04:22:57;;;;;;;0.10;0.10;;;9.90;99.90;;;9.86;100.00;99759.28;4912018;29;20262;-79
2022/12/24 04:25:24;;;;;;;0.10;0.10;;;9.90;99.90;;;9.78;100.00;99751.38;4912850;29;20242;-78
2022/12/24 04:27:51;;;;;;;0.10;0.10;;;9.80;99.90;;;9.74;100.00;99767.19;4913131;29;20227;-79
2022/12/24 04:30:18;;;;;;;0.20;0.20;;;9.80;99.90;;;9.78;100.00;99793.63;4917001;29;20239;-78
2022/12/24 04:32:45;;;;;;;0.45;0.45;;;9.80;99.90;;;9.75;100.00;99792.72;4909962;29;20222;-79
2022/12/24 04:35:12;;;;;;;0.00;0.00;;;9.80;99.90;;;9.74;100.00;99809.44;4934688;29;20337;-79
2022/12/24 04:37:39;;;;;;;0.10;0.10;;;9.70;99.90;;;9.67;100.00;99800.63;4936401;29;20234;-78
2022/12/24 04:40:07;;;;;;;0.00;0.00;;;9.70;99.90;;;9.80;100.00;99815.63;4955397;29;20266;-79
2022/12/24 04:42:34;;;;;;;0.00;0.00;;;9.80;99.90;;;9.86;100.00;99823.56;4955290;29;20345;-79
2022/12/24 04:45:01;;;;;;;0.00;0.00;;;9.80;99.90;;;9.84;100.00;99827.97;4954584;29;20234;-79
2022/12/24 04:47:28;;;;;;;0.00;0.00;;;9.90;99.90;;;9.78;100.00;99833.22;4955117;29;20257;-78
2022/12/24 04:49:55;;;;;;;0.17;0.17;;;9.80;99.90;;;9.78;100.00;99835.84;4955241;29;20233;-79
2022/12/24 04:52:22;;;;;;;0.45;0.45;;;9.80;99.90;;;9.82;100.00;99849.94;4955097;29;20234;-79
2022/12/24 04:54:49;;;;;;;0.35;0.35;;;9.80;99.90;;;9.72;100.00;99833.19;4954523;29;20233;-79
2022/12/24 04:57:16;;;;;;;0.00;0.00;;;9.70;99.90;;;9.72;100.00;99825.28;4954742;29;20312;-78
2022/12/24 04:59:43;;;;;;;0.10;0.10;;;9.70;99.90;;;9.75;100.00;99843.78;4937803;29;20253;-78
2022/12/24 05:02:11;;;;;;;0.00;0.00;;;9.70;99.90;;;9.83;100.00;99825.31;4941829;29;20674;-79
2022/12/24 05:04:38;;;;;;;0.10;0.10;;;9.80;99.90;;;9.81;100.00;99814.75;4935473;29;20610;-77
2022/12/24 05:07:05;;;;;;;0.00;0.00;;;9.90;99.90;;;9.65;100.00;99812.94;4918488;29;20230;-77
2022/12/24 05:09:32;;;;;;;0.00;0.00;;;9.70;99.90;;;9.74;100.00;99822.66;4935441;29;20246;-78
2022/12/24 05:11:59;;;;;;;0.03;0.03;;;9.70;99.90;;;9.97;100.00;99822.69;4935273;29;20306;-79
2022/12/24 05:14:26;;;;;;;0.00;0.00;;;9.90;99.90;;;9.95;100.00;99807.72;4934927;29;20238;-78
2022/12/24 05:16:53;;;;;;;0.08;0.08;;;10.00;99.90;;;10.11;100.00;99805.97;4935502;29;20321;-79
2022/12/24 05:19:21;;;;;;;0.00;0.00;;;10.00;99.90;;;10.04;100.00;99798.06;4935456;29;20231;-79
2022/12/24 05:26:20;;;;;;;0.00;0.00;;;10.10;99.90;;;9.99;100.00;99807.72;4935596;29;20321;-79
2022/12/24 05:27:20;;;;;;;0.10;0.10;;;9.90;99.90;;;9.89;100.00;99812.13;4954572;28;20312;-78
2022/12/24 05:29:47;;;;;;;0.00;0.00;;;9.90;99.90;;;9.87;100.00;99801.56;4938008;28;20304;-78
2022/12/24 05:32:14;;;;;;;0.00;0.00;;;9.90;99.90;;;9.93;100.00;99811.25;4925173;29;20242;-79
2022/12/24 05:34:41;;;;;;;0.03;0.03;;;9.90;99.90;;;10.00;100.00;99813.00;4934943;29;20246;-79
2022/12/24 05:37:08;;;;;;;0.10;0.10;;;10.00;99.90;;;10.09;100.00;99806.88;4916568;29;20259;-78
2022/12/24 05:39:36;;;;;;;0.10;0.10;;;10.00;99.90;;;10.11;100.00;99813.03;4916166;29;20294;-78
2022/12/24 05:42:03;;;;;;;0.10;0.10;;;10.10;99.90;;;10.07;100.00;99805.97;4934342;29;20231;-78
2022/12/24 05:44:30;;;;;;;0.03;0.03;;;10.10;99.90;;;10.17;100.00;99819.19;4934470;29;20261;-78
2022/12/24 05:46:57;;;;;;;0.10;0.10;;;10.10;99.90;;;10.07;100.00;99803.34;4935276;29;20238;-78
2022/12/24 05:49:24;;;;;;;0.10;0.10;;;10.10;99.90;;;10.18;100.00;99823.59;4934596;29;20262;-78
2022/12/24 05:51:51;;;;;;;0.03;0.03;;;10.20;99.90;;;10.10;100.00;99827.13;4934734;29;20231;-78
2022/12/24 05:54:18;;;;;;;0.10;0.10;;;10.10;99.90;;;9.99;100.00;99820.94;4934621;29;20325;-78
2022/12/24 05:56:45;;;;;;;0.03;0.03;;;10.00;99.90;;;10.07;100.00;99845.59;4918369;29;20234;-78
2022/12/24 05:59:12;;;;;;;0.10;0.10;;;10.00;99.90;;;10.19;100.00;99851.78;4917859;29;20734;-78
2022/12/24 06:01:39;;;;;;;0.10;0.10;;;10.20;99.90;;;10.11;100.00;99848.25;4934972;29;20250;-78
2022/12/24 06:04:06;;;;;;;0.13;0.10;;;10.10;99.90;;;10.18;100.00;99854.44;4934012;29;20310;-78
2022/12/24 06:06:33;;;;;;;0.00;0.00;;;10.20;99.90;;;10.27;100.00;99867.69;4916843;29;20230;-78
2022/12/24 06:09:00;;;;;;;0.00;0.00;;;10.20;99.90;;;10.17;100.00;99839.44;4934254;29;20246;-79
2022/12/24 06:11:29;;;;;;;0.10;0.10;;;10.20;99.90;;;10.17;100.00;99827.13;4934546;29;20258;-78
2022/12/24 06:13:59;;;;;;;0.00;0.00;;;10.20;99.90;;;10.21;100.00;99844.78;4934915;29;20241;-78
2022/12/24 06:16:26;;;;;;;0.10;0.10;;;10.30;99.90;;;10.32;100.00;99850.06;4934771;29;20786;-78
2022/12/24 06:18:53;;;;;;;0.10;0.10;;;10.30;99.90;;;10.24;100.00;99862.41;4934813;29;20242;-79
2022/12/24 06:21:21;;;;;;;0.10;0.10;;;10.20;99.90;;;10.38;100.00;99857.13;4934621;29;20712;-79
2022/12/24 06:23:48;;;;;;;0.00;0.00;;;10.30;99.90;;;10.29;100.00;99842.13;4934210;29;20364;-79
2022/12/24 06:26:20;;;;;;;0.52;0.52;;;10.30;99.90;;;10.16;100.00;99841.22;4933975;29;20301;-78
2022/12/24 06:28:48;;;;;;;0.00;0.00;;;10.20;99.90;;;10.12;100.00;99844.72;4933879;29;20227;-79
2022/12/24 06:31:19;;;;;;;0.00;0.00;;;10.10;99.90;;;10.08;100.00;99850.00;4934567;29;20674;-78
2022/12/24 06:33:47;;;;;;;0.00;0.00;;;10.10;99.90;;;10.18;100.00;99852.66;4933906;29;20242;-78
2022/12/24 06:36:21;;;;;;;0.10;0.10;;;10.10;99.90;;;10.16;100.00;99842.97;4933716;29;20241;-78
2022/12/24 06:38:49;;;;;;;0.10;0.10;;;10.20;99.90;;;10.18;100.00;99850.03;4934298;29;20320;-78
2022/12/24 06:41:17;;;;;;;0.08;0.08;;;10.20;99.90;;;10.15;100.00;99844.75;4933608;29;20400;-78
2022/12/24 06:43:50;;;;;;;0.10;0.10;;;10.10;99.90;;;10.29;100.00;99857.13;4933744;29;20286;-78
2022/12/24 06:46:19;;;;;;;0.10;0.10;;;10.20;99.90;;;10.17;100.00;99842.97;4933433;29;20330;-78
2022/12/24 06:48:46;;;;;;;0.10;0.10;;;10.20;99.90;;;10.15;100.00;99850.03;4933651;29;20241;-79
2022/12/24 06:51:18;;;;;;;0.20;0.20;;;10.20;99.90;;;10.04;100.00;99856.16;4933478;29;20246;-79
2022/12/24 06:53:49;;;;;;;0.00;0.00;;;10.10;99.90;;;9.99;100.00;99865.84;4934212;29;20226;-79
2022/12/24 06:56:17;;;;;;;0.05;0.05;;;10.00;99.90;;;10.00;100.00;99878.16;4934442;29;20670;-80
2022/12/24 06:58:45;;;;;;;0.08;0.08;;;10.00;99.90;;;10.02;100.00;99879.06;4934228;29;20313;-79
2022/12/24 07:01:15;;;;;;;0.35;0.35;;;10.00;99.90;;;10.01;100.00;99896.66;4917022;29;20266;-79
2022/12/24 07:03:42;;;;;;;0.10;0.10;;;10.00;99.90;;;10.04;100.00;99906.34;4932909;29;20245;-79
2022/12/24 07:06:32;;;;;;;0.10;0.10;;;10.00;99.90;;;10.19;100.00;99909.91;4934492;29;20234;-79
2022/12/24 07:08:59;;;;;;;0.10;0.10;;;10.20;99.90;;;10.13;100.00;99917.84;4933792;29;20234;-79
2022/12/24 07:11:26;;;;;;;0.20;0.20;;;10.20;99.90;;;10.06;100.00;99915.16;4934314;29;20301;-79
2022/12/24 07:13:53;;;;;;;0.10;0.10;;;10.10;99.90;;;10.17;100.00;99916.97;4933524;29;20230;-79
2022/12/24 07:16:20;;;;;;;0.10;0.10;;;10.10;99.90;;;10.25;100.00;99920.53;4932723;29;20249;-78
2022/12/24 07:18:48;;;;;;;0.10;0.10;;;10.20;99.90;;;10.21;100.00;99925.81;4933792;29;20243;-79
2022/12/24 07:21:15;;;;;;;0.10;0.10;;;10.20;99.90;;;10.14;100.00;99919.59;4933490;29;20294;-80
2022/12/24 07:23:42;;;;;;;0.10;0.10;;;10.20;99.90;;;10.20;100.00;99922.28;4909474;29;20226;-78
2022/12/24 07:26:10;;;;;;;0.00;0.00;;;10.20;99.90;;;10.14;100.00;99911.66;4926822;29;20305;-77
2022/12/24 07:28:37;;;;;;;0.10;0.10;;;10.20;99.90;;;10.15;100.00;99923.13;4930104;29;20230;-78
2022/12/24 07:31:04;;;;;;;0.10;0.10;;;10.10;99.90;;;10.16;100.00;99927.53;4950408;29;20285;-77
2022/12/24 07:33:31;;;;;;;0.10;0.10;;;10.20;99.90;;;10.17;100.00;99927.53;4936502;29;20237;-78
2022/12/24 07:36:07;;;;;;;0.20;0.20;;;10.20;99.90;;;10.05;100.00;99921.34;4951283;29;20257;-77
2022/12/24 07:38:35;;;;;;;0.05;0.05;;;10.10;99.90;;;10.01;100.00;99924.84;4915905;29;20298;-78
2022/12/24 07:41:02;;;;;;;0.10;0.10;;;10.00;99.90;;;10.02;100.00;99931.88;4925375;29;20297;-79
2022/12/24 07:43:32;;;;;;;0.10;0.10;;;10.00;99.90;;;10.03;100.00;99937.19;4945142;29;20240;-79
2022/12/24 07:45:59;;;;;;;0.10;0.10;;;10.00;99.90;;;10.02;100.00;99934.53;4951771;29;20323;-79
2022/12/24 07:48:28;;;;;;;0.10;0.10;;;10.00;99.90;;;10.01;100.00;99935.41;4952054;29;20709;-79
2022/12/24 07:50:56;;;;;;;0.10;0.10;;;10.00;99.90;;;10.07;100.00;99949.53;4934908;29;20639;-78
2022/12/24 07:53:26;;;;;;;0.00;0.00;;;10.10;99.90;;;10.10;100.00;99951.28;4935022;29;20230;-78
2022/12/24 07:55:53;;;;;;;0.20;0.20;;;10.10;99.90;;;10.14;100.00;99948.66;4934811;29;20233;-79
2022/12/24 07:58:21;;;;;;;0.10;0.10;;;10.20;99.90;;;10.14;100.00;99950.41;4934768;29;20257;-78
2022/12/24 08:00:48;;;;;;;0.10;0.10;;;10.10;99.90;;;10.24;100.00;99960.16;4951772;29;20233;-78
2022/12/24 08:03:19;;;;;;;0.10;0.10;;;10.20;99.90;;;10.22;100.00;99954.00;4950634;28;20261;-78
2022/12/24 08:05:47;;;;;;;0.10;0.10;;;10.20;99.90;;;10.21;100.00;99958.41;4934415;29;20721;-78
2022/12/24 08:08:14;;;;;;;0.17;0.13;;;10.20;99.90;;;10.20;100.00;99974.25;4951419;29;20301;-79
2022/12/24 08:10:43;;;;;;;0.10;0.10;;;10.20;99.90;;;10.25;100.00;99980.44;4934623;29;20254;-78
2022/12/24 08:13:11;;;;;;;0.10;0.10;;;10.20;99.90;;;10.27;100.00;99973.38;4952160;29;20245;-78
2022/12/24 08:15:39;;;;;;;0.10;0.10;;;10.20;99.90;;;10.21;100.00;99976.91;4932762;29;20245;-79
2022/12/24 08:18:07;;;;;;;0.20;0.20;;;10.20;99.90;;;10.32;100.00;99970.75;4932469;29;20612;-79
2022/12/24 08:20:39;;;;;;;0.03;0.03;;;10.30;99.90;;;10.25;100.00;99967.22;4927792;29;20226;-79
2022/12/24 08:23:07;;;;;;;0.10;0.10;;;10.30;99.90;;;10.26;100.00;99964.59;4933479;29;20226;-79
2022/12/24 08:25:35;;;;;;;0.10;0.10;;;10.20;99.90;;;10.25;100.00;99957.53;4943572;28;20260;-79
2022/12/24 08:28:03;;;;;;;0.00;0.00;;;10.30;99.90;;;10.19;100.00;99959.25;4916067;29;20692;-80
2022/12/24 08:30:30;;;;;;;0.10;0.10;;;10.20;99.90;;;10.19;100.00;99964.53;4932572;29;20270;-80
2022/12/24 08:32:57;;;;;;;0.10;0.10;;;10.20;99.90;;;10.32;100.00;99961.06;4935423;29;20675;-80
2022/12/24 08:35:24;;;;;;;0.10;0.10;;;10.30;99.90;;;10.31;100.00;99956.66;4938818;29;20241;-80
2022/12/24 08:37:52;;;;;;;0.45;0.30;;;10.30;99.90;;;10.25;100.00;99946.97;4935662;29;20312;-79
2022/12/24 08:40:19;;;;;;;0.10;0.10;;;10.30;99.90;;;10.35;100.00;99963.72;4935224;29;20229;-80
2022/12/24 08:42:46;;;;;;;0.05;0.05;;;10.30;99.90;;;10.43;100.00;99977.88;4952248;29;20256;-79
2022/12/24 08:45:14;;;;;;;0.05;0.05;;;10.40;99.90;;;10.42;100.00;99972.56;4949405;29;20246;-80
2022/12/24 08:47:41;;;;;;;0.00;0.00;;;10.40;99.90;;;10.41;100.00;99963.78;4935999;29;20229;-79
2022/12/24 08:50:10;;;;;;;0.00;0.00;;;10.40;99.90;;;10.43;100.00;99977.00;4952095;29;20248;-80
2022/12/24 08:52:37;;;;;;;0.00;0.00;;;10.40;99.90;;;10.44;100.00;99981.41;4932532;29;20230;-78
2022/12/24 08:55:05;;;;;;;0.10;0.10;;;10.40;99.90;;;10.41;100.00;99989.31;4927837;29;20230;-80
2022/12/24 08:57:36;;;;;;;0.10;0.10;;;10.40;99.90;;;10.41;100.00;99995.50;4928820;29;20234;-78
2022/12/24 09:00:06;;;;;;;0.10;0.10;;;10.40;99.90;;;10.41;100.00;100006.06;4928845;29;20301;-79
2022/12/24 09:02:33;;;;;;;0.00;0.00;;;10.40;99.90;;;10.39;100.00;100010.44;4926262;29;20271;-78
2022/12/24 09:05:01;;;;;;;0.00;0.00;;;10.40;99.90;;;10.49;100.00;100036.03;4929137;29;20370;-79
2022/12/24 09:07:28;;;;;;;0.00;0.00;;;10.40;99.90;;;10.47;100.00;100021.06;4921175;29;20285;-78
2022/12/24 09:09:55;;;;;;;0.00;0.00;;;10.50;99.90;;;10.70;100.00;100027.28;4929566;29;20227;-79
2022/12/24 09:12:23;;;;;;;0.00;0.00;;;10.60;99.90;;;10.71;100.00;100018.47;4928574;29;20234;-79
2022/12/24 09:14:50;;;;;;;0.10;0.10;;;10.70;99.90;;;10.69;100.00;100011.41;4932319;29;20241;-78
2022/12/24 09:17:17;;;;;;;0.00;0.00;;;10.70;99.90;;;10.64;100.00;100005.22;4934862;29;20396;-79
2022/12/24 09:19:45;;;;;;;0.10;0.10;;;10.60;99.90;;;10.73;100.00;100007.88;4932855;29;20230;-78
2022/12/24 09:22:13;;;;;;;0.00;0.00;;;10.70;99.90;;;10.85;100.00;100029.06;4908182;29;20616;-79
2022/12/24 09:24:40;;;;;;;0.03;0.03;;;10.80;99.90;;;10.95;100.00;100040.53;4929424;29;20306;-79
2022/12/24 09:27:07;;;;;;;0.00;0.00;;;10.70;99.90;;;11.12;100.00;100055.56;4934452;29;20289;-78
2022/12/24 09:29:35;;;;;;;0.05;0.05;;;11.00;99.90;;;11.07;100.00;100046.72;4917537;29;20642;-79
2022/12/24 09:32:03;;;;;;;0.10;0.10;;;11.10;99.90;;;11.00;100.00;100049.38;4913558;29;20691;-77
2022/12/24 09:34:30;;;;;;;0.10;0.10;;;11.00;99.90;;;10.99;100.00;100052.91;4934231;29;20297;-78
2022/12/24 09:36:58;;;;;;;0.10;0.10;;;11.00;99.90;;;10.96;100.00;100052.88;4934368;29;20262;-78
2022/12/24 09:39:26;;;;;;;0.00;0.00;;;11.00;99.90;;;10.98;100.00;100059.06;4934995;29;20238;-78
2022/12/24 09:42:23;;;;;;;0.10;0.10;;;11.00;99.90;;;10.99;100.00;100067.00;4931912;29;20230;-78
2022/12/24 09:45:15;;;;;;;0.00;0.00;;;11.00;99.90;;;11.01;100.00;100073.19;4932921;29;20820;-78
2022/12/24 09:47:52;;;;;;;0.00;0.00;;;11.00;99.90;;;11.04;100.00;100069.66;4936173;29;20289;-79
2022/12/24 09:50:41;;;;;;;0.05;0.05;;;11.00;99.90;;;11.03;100.00;100074.06;4936814;29;20276;-79
2022/12/24 09:53:54;;;;;;;0.00;0.00;;;11.00;99.90;;;11.14;100.00;100074.97;4934338;28;20302;-78
2022/12/24 09:56:36;;;;;;;0.00;0.00;;;11.10;99.90;;;11.21;100.00;100070.56;4908021;29;20239;-78
2022/12/24 09:59:08;;;;;;;0.00;0.00;;;11.10;99.90;;;11.22;100.00;100077.63;4914152;29;20231;-79
2022/12/24 10:01:35;;;;;;;0.00;0.00;;;11.20;99.90;;;11.29;100.00;100067.91;4930454;29;20234;-77
2022/12/24 10:04:16;;;;;;;0.10;0.10;;;11.20;99.90;;;11.35;100.00;100062.63;4931102;29;20234;-78
2022/12/24 10:07:23;;;;;;;0.10;0.10;;;11.30;99.90;;;11.34;100.00;100053.78;4935191;29;20225;-80
2022/12/24 10:10:09;;;;;;;0.10;0.10;;;11.30;99.90;;;11.41;100.00;100041.44;4943421;29;20301;-79
2022/12/24 10:13:09;;;;;;;0.00;0.00;;;11.30;99.90;;;11.46;100.00;100042.31;4938686;29;20234;-81
2022/12/24 10:16:11;;;;;;;0.00;0.00;;;11.40;99.90;;;11.53;99.35;100026.41;4933999;29;20241;-79
2022/12/24 10:18:57;;;;;;;0.00;0.00;;;11.50;99.90;;;11.54;98.77;100029.94;4934381;29;20257;-79
2022/12/24 10:21:39;;;;;;;0.10;0.10;;;11.50;99.90;;;11.59;97.33;100020.22;4949033;29;20253;-79
2022/12/24 10:24:20;;;;;;;0.20;0.20;;;11.50;99.90;;;11.59;96.70;100016.69;4914763;29;20226;-79
2022/12/24 10:27:11;;;;;;;0.00;0.00;;;11.50;99.90;;;11.55;96.90;100013.16;4931566;29;20238;-79
2022/12/24 10:29:46;;;;;;;0.10;0.10;;;11.50;99.90;;;11.52;97.05;100013.19;4941161;29;20254;-79
2022/12/24 10:32:26;;;;;;;0.00;0.00;;;11.50;99.90;;;11.55;96.44;100016.69;4947296;28;20233;-79
2022/12/24 10:35:19;;;;;;;0.10;0.10;;;11.50;99.90;;;11.59;95.67;100004.34;4917053;29;20258;-78
2022/12/24 10:37:49;;;;;;;0.00;0.00;;;11.50;99.90;;;11.52;96.60;100011.41;4929005;29;20321;-80